Coronel FAP Francisco Secada Vignetta International Airport
SPQT : now visible

Airfield :











YOU CAN JOIN US ON...

 
LOGIN :

Register | Disclaimer

   EN    FR    IT 

 









Legend :    VFR   Marginal VFR   IFR   Intensive IFR   Very Intensive IFR
Visi :
Ceiling :
>= 8 km
>= 3000ft
5 to 8 km
1000 to 3000 ft
1500m to 5 km
500 to 1000 ft
800 to 1500m
200 to 500 ft
< 800m
< 200 ft
Symbols :   Thunderstorms  Fog  Heavy snow  Heavy precipitations  Wind > 20 kt






- Airport Elevation : 306 ft
- IATA code : IQT


SPQT - Coronel FAP Francisco Secada Vignetta International

CURRENT METAR :
  • 150900Z VRB02KT 9999 FEW020 BKN080 24/22 Q1011 NOSIG RMK PP000

EXPIRED METARs :
  • 150800Z 31004KT 280V340 9999 FEW018 BKN080 24/23 Q1011 NOSIG RMK PP000
  • 150700Z 32003KT 300V360 9999 FEW015 BKN100 24/23 Q1012 NOSIG RMK PP000

TAF SPQT
Valid from the 15 at 06:00 until the 16 at 06:00 UTC


150500Z 1506/1606 00000KT CAVOK TX33/1519Z TN23/1511Z
TEMPO 1508/1512 1000 BCFG SCT005 SCT080
BECMG 1513/1516 02005KT 9999 BKN020 SCT100
TEMPO 1519/1601 03012KT 4000 SHRA BKN015 FEW030TCU BKN100



MET'MAP, your aeronautical weather chart ! - Copyright ORBIFLY December 2007 - Disclaimer

ORBIFLY MET'MAP TEAM :

Programming & Development : Alexandra Zaïnal
Concept & Development : Baudouin d'Aumeries
Co-Development & Prog : Marc-Olivier Méhu
Technical & hardware support : Manuel Goepfert

Contact : metmap@orbifly.com




SOURCES & CREDITS :

   NOAA       Earth
Advisory